Main page
METAR-TAF:

METAR-TAF

Airports :

San Cristóbal Airport

Galapagos, Ecuador

latitude: 00-54S, longitude: 089-36W, elevation: 6 m

Current weather observation

The report was made 32 minutes ago, at 18:00 UTC
Wind 12 kt from the South/Southeast
Temperature 23°C
Humidity 73%
Pressure 1012 hPa
Visibility 10 km or more
Broken clouds at a height of 2000 ft

METAR: SEST 161800Z 16012KT 9999 BKN020 23/18 Q1012 RMK A2990

Time: 12:32 (18:32 UTC)


TAF: missing

Weather observations and forecasts of more than 4000 airports (METAR and TAF reports).

The available stations are represented by yellow and red dots on the map.

Hover mouse over dot to see the name of the station.

Then click to see weather observations and forecasts.

To change the map : click on the green buttons with a black cross to zoom in, on the green button with a dash to zoom out, or on the green arrows for adjacent maps.


METAR-TAF: